ADDS METAR Data INFO
IDs: Format: Raw Decoded Include TAF

Data at: 0029 UTC 23 Oct 2017

KMMU 222345Z 00000KT 10SM SKC 12/10 A3037
KMMU 222245Z 12003KT 10SM SKC 17/11 A3034
KMMU 222145Z 15005KT 10SM SCT200 21/10 A3034
KMMU 222045Z 17005KT 10SM SCT200 24/08 A3034
KMMU 221945Z 18006KT 10SM SCT200 24/07 A3034
KMMU 221845Z 19005KT 10SM SCT200 24/07 A3034
KMMU 221745Z 21005KT 10SM FEW200 24/07 A3037
KMMU 221645Z 17006KT 10SM FEW200 24/07 A3039
KMMU 221545Z 21003KT 10SM SCT250 22/09 A3041
KMMU 221445Z 00000KT 10SM BKN250 17/09 A3042
KMMU 221345Z 00000KT 10SM BKN250 12/09 A3043
KMMU 221245Z 00000KT 10SM BKN250 08/07 A3044
KMMU 221145Z 00000KT 10SM MIFG BKN250 05/04 A3042
KMMU 221045Z 00000KT 10SM MIFG SCT250 04/04 A3040
KMMU 221035Z AUTO 00000KT 10SM CLR 03/03 A3039 RMK AO2
KMMU 221015Z AUTO 00000KT 3SM BR SCT002 03/03 A3039 RMK AO2
KMMU 220955Z AUTO 00000KT 3/4SM BR BKN002 03/03 A3039 RMK AO2
KMMU 220935Z AUTO 00000KT 10SM CLR 03/03 A3038 RMK AO2
KMMU 220915Z AUTO 00000KT 10SM SCT002 04/04 A3038 RMK AO2
KMMU 220855Z AUTO 00000KT 7SM SCT002 03/03 A3037 RMK AO2
KMMU 220835Z AUTO 00000KT 3/4SM BR VV005 03/03 A3037 RMK AO2
KMMU 220815Z AUTO 00000KT 10SM SCT002 03/03 A3036 RMK AO2
KMMU 220755Z AUTO 00000KT 1/2SM FG BKN002 04/04 A3037 RMK AO2
KMMU 220735Z AUTO 00000KT 10SM CLR 03/03 A3036 RMK AO2
KMMU 220715Z AUTO 00000KT 3/4SM BR VV005 04/04 A3037 RMK AO2 VIS 1/2V4
KMMU 220655Z AUTO 00000KT 1 1/2SM BR VV007 04/03 A3037 RMK AO2 VIS 1/2V5
KMMU 220635Z AUTO 00000KT 10SM CLR 04/04 A3037 RMK AO2
KMMU 220615Z AUTO 00000KT 10SM SCT002 05/04 A3036 RMK AO2
KMMU 220555Z AUTO 00000KT 1/2SM FG BKN002 04/04 A3037 RMK AO2 VIS 1/4V5
KMMU 220535Z AUTO 00000KT 5SM BR CLR 04/04 A3037 RMK AO2
KMMU 220515Z AUTO 00000KT 10SM CLR 05/04 A3037 RMK AO2
KMMU 220455Z AUTO 00000KT 1 3/4SM BR SCT002 05/05 A3037 RMK AO2
KMMU 220435Z AUTO 00000KT 1 1/4SM BR SCT002 05/05 A3037 RMK AO2 VIS 1/2V5
KMMU 220415Z AUTO 00000KT 2SM BR CLR 06/05 A3037 RMK AO2 VIS 1/2V5
KMMU 220355Z AUTO 00000KT 10SM CLR 06/06 A3037 RMK AO2
KMMU 220335Z AUTO 00000KT 10SM CLR 06/05 A3037 RMK AO2
KMMU 220315Z AUTO 00000KT 10SM CLR 07/06 A3037 RMK AO2
KMMU 220250Z AUTO 00000KT 10SM CLR 06/06 A3037 RMK AO2
KMMU 220235Z AUTO 00000KT 10SM CLR 07/06 A3037 RMK AO2
KMMU 220145Z 00000KT 10SM BKN120 09/08 A3037
KMMU 220045Z 00000KT 10SM BKN120 09/08 A3036
KMMU 212345Z 00000KT 10SM BKN120 12/09 A3034
KMMU 212246Z 00000KT 10SM BKN120 13/09 A3033
KMMU 212146Z COR 29003KT 15SM BKN120 19/10 A3032
KMMU 212145Z 29003KT 1SM BKN120 19/10 A3032
KMMU 212050Z 25005KT 10SM BKN250 23/04 A3031
KMMU 211950Z 25005KT 10SM BKN250 25/04 A3030
KMMU 211845Z 28006KT 10SM SCT250 25/03 A3030
KMMU 211745Z 23004KT 10SM SCT250 25/03 A3031
KMMU 211645Z 23004KT 10SM SCT250 24/06 A3033
KMMU 211545Z 19004KT 10SM FEW250 21/05 A3036
KMMU 211445Z 21004KT 10SM FEW250 18/05 A3037
KMMU 211345Z 00000KT 10SM FEW250 14/07 A3037
KMMU 211245Z 00000KT 10SM SCT250 08/06 A3034